createdAt,value
2023-01-08T00:01:25.882Z,36.08
2023-01-08T00:03:53.745Z,36.44
2023-01-08T00:06:22.191Z,36.05
2023-01-08T00:08:50.036Z,36.24
2023-01-08T00:11:17.929Z,36.19
2023-01-08T00:13:46.074Z,36.31
2023-01-08T00:16:16.993Z,35.98
2023-01-08T00:18:46.335Z,35.82
2023-01-08T00:21:14.564Z,36.05
2023-01-08T00:23:42.642Z,36.27
2023-01-08T00:26:11.357Z,36.38
2023-01-08T00:28:39.704Z,36.47
2023-01-08T00:31:10.513Z,36.39
2023-01-08T00:33:39.164Z,36.58
2023-01-08T00:36:08.933Z,36.56
2023-01-08T00:38:36.977Z,36.23
2023-01-08T00:41:05.496Z,36.79
2023-01-08T00:43:34.009Z,36.57
2023-01-08T00:46:01.929Z,37.00
2023-01-08T00:48:29.669Z,37.19
2023-01-08T00:50:57.643Z,37.24
2023-01-08T00:53:25.383Z,36.90
2023-01-08T00:56:03.638Z,36.73
2023-01-08T00:58:31.788Z,36.77
2023-01-08T01:00:59.759Z,36.81
2023-01-08T01:03:28.014Z,36.61
2023-01-08T01:06:03.066Z,36.41
2023-01-08T01:08:31.224Z,36.54
2023-01-08T01:10:59.029Z,36.28
2023-01-08T01:13:26.907Z,36.52
2023-01-08T01:16:02.715Z,36.05
2023-01-08T01:18:31.426Z,36.66
2023-01-08T01:20:59.095Z,36.16
2023-01-08T01:23:26.824Z,36.69
2023-01-08T01:25:54.962Z,36.73
2023-01-08T01:28:22.794Z,36.00
2023-01-08T01:30:57.567Z,36.49
2023-01-08T01:33:25.544Z,36.26
2023-01-08T01:36:01.219Z,36.47
2023-01-08T01:38:29.937Z,36.49
2023-01-08T01:40:58.308Z,36.50
2023-01-08T01:43:43.752Z,36.43
2023-01-08T01:46:41.165Z,36.67
2023-01-08T01:49:18.596Z,37.13
2023-01-08T01:51:54.971Z,37.19
2023-01-08T01:54:23.916Z,36.93
2023-01-08T01:56:51.822Z,37.15
2023-01-08T01:59:20.141Z,36.48
2023-01-08T02:01:48.338Z,36.63
2023-01-08T02:04:16.643Z,36.62
2023-01-08T02:06:58.199Z,36.78
2023-01-08T02:09:35.757Z,36.59
2023-01-08T02:12:17.965Z,37.11
2023-01-08T02:14:55.116Z,37.05
2023-01-08T02:17:37.610Z,36.98
2023-01-08T02:20:31.538Z,37.14
2023-01-08T02:23:26.791Z,36.83
2023-01-08T02:26:13.870Z,37.02
2023-01-08T02:28:54.182Z,36.69
2023-01-08T02:31:24.637Z,36.84
2023-01-08T02:33:52.601Z,36.62
2023-01-08T02:36:43.870Z,37.07
2023-01-08T02:39:29.824Z,37.40
2023-01-08T02:42:04.824Z,38.11
2023-01-08T02:44:51.291Z,37.87
2023-01-08T02:47:36.252Z,37.89
2023-01-08T02:50:06.772Z,37.73
2023-01-08T02:52:39.050Z,38.08
2023-01-08T02:55:08.657Z,38.14
2023-01-08T02:57:38.766Z,38.14
2023-01-08T03:00:08.869Z,37.84
2023-01-08T03:02:39.993Z,38.05
2023-01-08T03:05:17.066Z,38.34
2023-01-08T03:07:44.863Z,38.30
2023-01-08T03:10:12.878Z,38.51
2023-01-08T03:12:49.321Z,38.46
2023-01-08T03:15:43.602Z,38.47
2023-01-08T03:18:15.683Z,38.56
2023-01-08T03:20:45.060Z,38.45
2023-01-08T03:23:15.139Z,38.73
2023-01-08T03:25:46.335Z,38.56
2023-01-08T03:28:30.755Z,38.46
2023-01-08T03:30:59.523Z,38.56
2023-01-08T03:33:30.436Z,38.46
2023-01-08T03:36:01.598Z,38.46
2023-01-08T03:38:42.153Z,38.36
2023-01-08T03:41:19.218Z,38.43
2023-01-08T03:43:47.274Z,38.53
2023-01-08T03:46:21.983Z,38.53
2023-01-08T03:48:51.340Z,38.33
2023-01-08T03:51:20.611Z,38.73
2023-01-08T03:53:52.574Z,38.66
2023-01-08T03:56:20.438Z,38.82
2023-01-08T03:58:48.766Z,38.49
2023-01-08T04:01:19.166Z,38.72
2023-01-08T04:03:47.371Z,39.70
2023-01-08T04:06:15.169Z,39.37
2023-01-08T04:08:42.825Z,39.72
2023-01-08T04:11:10.634Z,40.17
2023-01-08T04:13:38.382Z,40.60
2023-01-08T04:16:06.505Z,40.77
2023-01-08T04:18:35.079Z,40.86
2023-01-08T04:21:02.784Z,41.13
2023-01-08T04:23:30.695Z,41.06
2023-01-08T04:25:58.681Z,41.28
2023-01-08T04:28:26.762Z,41.46
2023-01-08T04:30:55.486Z,40.93
2023-01-08T04:33:23.204Z,41.79
2023-01-08T04:35:51.103Z,41.39
2023-01-08T04:38:18.908Z,41.70
2023-01-08T04:40:46.650Z,41.27
2023-01-08T04:43:14.323Z,41.41
2023-01-08T04:45:42.314Z,41.37
2023-01-08T04:48:10.294Z,41.53
2023-01-08T04:50:37.999Z,41.39
2023-01-08T04:53:05.783Z,41.40
2023-01-08T04:55:34.006Z,41.40
2023-01-08T04:58:02.599Z,41.74
2023-01-08T05:00:30.575Z,41.81
2023-01-08T05:02:58.536Z,41.34
2023-01-08T05:05:26.484Z,41.84
2023-01-08T05:07:54.109Z,41.68
2023-01-08T05:10:22.754Z,41.59
2023-01-08T05:12:50.611Z,41.41
2023-01-08T05:15:18.497Z,41.64
2023-01-08T05:17:46.123Z,41.76
2023-01-08T05:20:14.274Z,41.89
2023-01-08T05:22:41.989Z,41.35
2023-01-08T05:25:10.137Z,41.30
2023-01-08T05:27:37.809Z,41.38
2023-01-08T05:30:06.290Z,41.44
2023-01-08T05:32:34.038Z,41.26
2023-01-08T05:35:01.848Z,41.35
2023-01-08T05:37:29.468Z,41.04
2023-01-08T05:39:57.242Z,41.04
2023-01-08T05:42:26.241Z,40.80
2023-01-08T05:44:55.118Z,41.10
2023-01-08T05:47:22.805Z,41.18
2023-01-08T05:49:50.674Z,41.50
2023-01-08T05:52:18.547Z,41.10
2023-01-08T05:54:46.217Z,41.38
2023-01-08T05:57:14.067Z,41.31
2023-01-08T05:59:41.720Z,41.08
2023-01-08T06:02:09.892Z,41.42
2023-01-08T06:04:37.786Z,41.10
2023-01-08T06:07:05.597Z,41.33
2023-01-08T06:09:33.520Z,41.18
2023-01-08T06:12:01.312Z,41.27
2023-01-08T06:14:30.370Z,41.68
2023-01-08T06:16:58.129Z,41.90
2023-01-08T06:19:25.861Z,41.96
2023-01-08T06:21:53.799Z,41.91
2023-01-08T06:24:21.638Z,41.80
2023-01-08T06:26:49.505Z,41.78
2023-01-08T06:29:17.659Z,42.13
2023-01-08T06:31:45.465Z,41.95
2023-01-08T06:34:13.411Z,41.91
2023-01-08T06:36:41.345Z,41.88
2023-01-08T06:39:09.357Z,42.01
2023-01-08T06:41:37.061Z,42.21
2023-01-08T06:44:05.453Z,42.44
2023-01-08T06:46:38.338Z,43.02
2023-01-08T06:49:09.870Z,42.82
2023-01-08T06:51:37.574Z,42.39
2023-01-08T06:54:05.540Z,42.48
2023-01-08T06:56:42.711Z,42.39
2023-01-08T06:59:20.396Z,42.31
2023-01-08T07:01:48.624Z,42.19
2023-01-08T07:04:18.047Z,42.43
2023-01-08T07:06:47.095Z,42.61
2023-01-08T07:09:15.767Z,42.54
2023-01-08T07:11:43.490Z,42.60
2023-01-08T07:14:11.771Z,42.16
2023-01-08T07:16:39.648Z,42.43
2023-01-08T07:19:07.575Z,42.56
2023-01-08T07:21:35.787Z,42.32
2023-01-08T07:24:04.284Z,42.22
2023-01-08T07:26:32.202Z,42.49
2023-01-08T07:29:00.018Z,42.57
2023-01-08T07:31:27.913Z,42.47
2023-01-08T07:33:55.800Z,42.78
2023-01-08T07:36:24.650Z,42.71
2023-01-08T07:38:53.820Z,42.66
2023-01-08T07:41:22.975Z,42.66
2023-01-08T07:43:51.715Z,42.85
2023-01-08T07:46:19.500Z,43.07
2023-01-08T07:48:47.685Z,42.99
2023-01-08T07:51:15.491Z,43.26
2023-01-08T07:53:43.222Z,42.81
2023-01-08T07:56:11.855Z,42.87
2023-01-08T07:58:39.884Z,43.20
2023-01-08T08:01:11.000Z,42.74
2023-01-08T08:03:40.956Z,43.44
2023-01-08T08:06:09.578Z,43.22
2023-01-08T08:08:37.539Z,42.91
2023-01-08T08:11:07.562Z,43.09
2023-01-08T08:13:35.829Z,43.17
2023-01-08T08:16:05.233Z,43.21
2023-01-08T08:18:32.977Z,43.74
2023-01-08T08:21:01.562Z,43.20
2023-01-08T08:23:29.552Z,43.28
2023-01-08T08:25:57.280Z,43.38
2023-01-08T08:28:24.949Z,42.84
2023-01-08T08:30:53.381Z,42.81
2023-01-08T08:33:22.154Z,42.95
2023-01-08T08:35:51.305Z,44.09
2023-01-08T08:38:19.228Z,43.25
2023-01-08T08:40:47.058Z,42.70
2023-01-08T08:43:14.825Z,43.16
2023-01-08T08:45:42.598Z,42.58
2023-01-08T08:48:11.408Z,42.15
2023-01-08T08:50:39.587Z,42.01
2023-01-08T08:53:07.847Z,42.13
2023-01-08T08:55:35.797Z,41.70
2023-01-08T08:58:12.128Z,42.00
2023-01-08T09:00:41.837Z,42.19
2023-01-08T09:03:17.880Z,43.02
2023-01-08T09:06:04.404Z,43.16
2023-01-08T09:08:32.368Z,42.80
2023-01-08T09:11:03.004Z,42.91
2023-01-08T09:13:30.758Z,41.55
2023-01-08T09:15:59.630Z,41.57
2023-01-08T09:18:27.459Z,41.46
2023-01-08T09:20:55.167Z,41.46
2023-01-08T09:23:22.988Z,41.59
2023-01-08T09:25:50.808Z,41.58
2023-01-08T09:28:18.803Z,41.60
2023-01-08T09:30:46.531Z,41.64
2023-01-08T09:33:14.355Z,42.10
2023-01-08T09:35:43.967Z,42.25
2023-01-08T09:38:12.248Z,42.46
2023-01-08T09:41:04.142Z,42.22
2023-01-08T09:43:35.420Z,42.27
2023-01-08T09:46:06.190Z,42.56
2023-01-08T09:48:37.222Z,42.30
2023-01-08T09:51:09.770Z,41.92
2023-01-08T09:53:38.974Z,41.84
2023-01-08T09:56:18.905Z,42.27
2023-01-08T09:58:59.217Z,42.88
2023-01-08T10:01:29.515Z,42.97
2023-01-08T10:04:04.737Z,43.03
2023-01-08T10:06:32.745Z,42.83
2023-01-08T10:09:00.879Z,43.11
2023-01-08T10:11:38.779Z,44.31
2023-01-08T10:14:19.907Z,44.97
2023-01-08T10:17:04.371Z,45.23
2023-01-08T10:19:32.141Z,44.51
2023-01-08T10:22:00.246Z,44.48
2023-01-08T10:24:36.016Z,44.27
2023-01-08T10:27:28.195Z,44.18
2023-01-08T10:30:06.470Z,44.83
2023-01-08T10:32:37.580Z,45.54
2023-01-08T10:35:07.910Z,45.14
2023-01-08T10:37:42.743Z,45.07
2023-01-08T10:40:34.592Z,45.39
2023-01-08T10:43:15.113Z,46.05
2023-01-08T10:45:44.314Z,44.81
2023-01-08T10:48:18.689Z,44.76
2023-01-08T10:50:47.944Z,44.87
2023-01-08T10:53:35.114Z,45.19
2023-01-08T10:56:05.433Z,45.28
2023-01-08T10:58:43.472Z,45.16
2023-01-08T11:01:32.846Z,44.76
2023-01-08T11:04:06.588Z,44.92
2023-01-08T11:06:45.733Z,44.75
2023-01-08T11:09:23.700Z,44.88
2023-01-08T11:11:51.887Z,44.90
2023-01-08T11:14:30.526Z,45.29
2023-01-08T11:16:59.721Z,45.46
2023-01-08T11:19:30.753Z,45.37
2023-01-08T11:22:01.591Z,44.92
2023-01-08T11:24:32.941Z,44.78
2023-01-08T11:27:14.499Z,44.97
2023-01-08T11:29:58.024Z,45.35
2023-01-08T11:32:31.558Z,45.02
2023-01-08T11:35:21.035Z,45.84
2023-01-08T11:38:02.338Z,45.66
2023-01-08T11:41:14.622Z,46.06
2023-01-08T11:44:00.475Z,46.49
2023-01-08T11:46:46.421Z,46.17
2023-01-08T11:49:37.218Z,46.10
2023-01-08T11:52:24.506Z,45.84
2023-01-08T11:55:17.172Z,45.57
2023-01-08T11:58:06.977Z,45.98
2023-01-08T12:00:47.072Z,46.28
2023-01-08T12:03:42.186Z,46.37
2023-01-08T12:06:19.085Z,46.10
2023-01-08T12:09:00.133Z,46.30
2023-01-08T12:11:43.580Z,46.94
2023-01-08T12:14:30.606Z,47.05
2023-01-08T12:17:19.634Z,47.47
2023-01-08T12:19:53.263Z,47.71
2023-01-08T12:22:42.363Z,47.70
2023-01-08T12:25:28.986Z,47.52
2023-01-08T12:28:09.027Z,48.13
2023-01-08T12:30:36.833Z,48.07
2023-01-08T12:33:15.132Z,48.04
2023-01-08T12:35:54.717Z,48.12
2023-01-08T12:38:43.518Z,48.61
2023-01-08T12:41:13.541Z,48.46
2023-01-08T12:44:05.631Z,48.29
2023-01-08T12:46:36.116Z,48.41
2023-01-08T12:49:11.057Z,48.81
2023-01-08T12:51:56.469Z,49.30
2023-01-08T12:54:32.462Z,48.96
2023-01-08T12:57:10.469Z,49.31
2023-01-08T13:00:00.855Z,49.67
2023-01-08T13:02:50.057Z,49.99
2023-01-08T13:05:21.480Z,50.19
2023-01-08T13:07:56.512Z,50.16
2023-01-08T13:10:40.907Z,50.62
2023-01-08T13:13:29.451Z,50.96
2023-01-08T13:16:19.731Z,50.77
2023-01-08T13:19:22.100Z,51.14
2023-01-08T13:21:55.715Z,51.23
2023-01-08T13:24:31.244Z,51.17
2023-01-08T13:27:18.662Z,51.63
2023-01-08T13:29:48.635Z,51.51
2023-01-08T13:32:27.593Z,52.07
2023-01-08T13:35:14.720Z,51.76
2023-01-08T13:37:43.612Z,51.66
2023-01-08T13:40:46.431Z,51.93
2023-01-08T13:43:22.795Z,52.00
2023-01-08T13:46:02.854Z,51.55
2023-01-08T13:48:48.191Z,52.75
2023-01-08T13:51:33.052Z,52.49
2023-01-08T13:54:20.654Z,52.50
2023-01-08T13:56:54.220Z,53.07
2023-01-08T13:59:54.401Z,53.35
2023-01-08T14:02:31.392Z,54.46
2023-01-08T14:05:01.867Z,52.79
2023-01-08T14:07:31.993Z,52.34
2023-01-08T14:10:08.699Z,52.40
2023-01-08T14:12:40.255Z,51.85
2023-01-08T14:15:11.435Z,51.93
2023-01-08T14:17:39.261Z,51.16
2023-01-08T14:20:12.702Z,51.53
2023-01-08T14:22:43.369Z,51.09
2023-01-08T14:25:17.920Z,51.09
2023-01-08T14:28:00.921Z,51.21
2023-01-08T14:30:29.517Z,51.03
2023-01-08T14:32:59.381Z,50.33
2023-01-08T14:35:36.397Z,50.54
2023-01-08T14:38:05.917Z,50.38
2023-01-08T14:40:39.587Z,50.09
2023-01-08T14:43:11.577Z,50.28
2023-01-08T14:45:45.187Z,49.95
2023-01-08T14:48:23.141Z,50.37
2023-01-08T14:51:07.576Z,49.77
2023-01-08T14:53:38.063Z,49.62
2023-01-08T14:56:07.528Z,49.26
2023-01-08T14:58:39.993Z,49.71
2023-01-08T15:01:24.288Z,49.66
2023-01-08T15:04:04.074Z,50.05
2023-01-08T15:06:33.814Z,50.25
2023-01-08T15:09:01.713Z,49.88
2023-01-08T15:11:32.463Z,50.17
2023-01-08T15:14:00.204Z,49.49
2023-01-08T15:16:30.008Z,49.35
2023-01-08T15:19:01.059Z,50.46
2023-01-08T15:21:29.072Z,50.92
2023-01-08T15:24:00.406Z,51.27
2023-01-08T15:26:28.580Z,50.94
2023-01-08T15:29:04.839Z,51.36
2023-01-08T15:31:54.395Z,50.50
2023-01-08T15:34:22.564Z,49.91
2023-01-08T15:36:50.766Z,49.50
2023-01-08T15:39:18.733Z,49.77
2023-01-08T15:42:15.767Z,50.68
2023-01-08T15:44:43.565Z,52.62
2023-01-08T15:47:11.433Z,51.01
2023-01-08T15:49:39.147Z,50.93
2023-01-08T15:52:10.170Z,50.37
2023-01-08T15:54:38.336Z,49.72
2023-01-08T15:57:06.273Z,48.88
2023-01-08T15:59:37.674Z,48.99
2023-01-08T16:02:05.451Z,48.64
2023-01-08T16:04:33.356Z,48.54
2023-01-08T16:07:04.374Z,48.26
2023-01-08T16:09:32.219Z,48.38
2023-01-08T16:12:00.012Z,47.79
2023-01-08T16:14:28.185Z,47.75
2023-01-08T16:16:56.556Z,47.84
2023-01-08T16:19:25.105Z,47.93
2023-01-08T16:21:52.823Z,48.31
2023-01-08T16:24:20.778Z,47.96
2023-01-08T16:26:49.377Z,48.88
2023-01-08T16:29:17.243Z,48.58
2023-01-08T16:31:48.562Z,48.52
2023-01-08T16:34:17.065Z,48.23
2023-01-08T16:36:44.803Z,48.28
2023-01-08T16:39:14.596Z,48.52
2023-01-08T16:41:43.503Z,48.74
2023-01-08T16:44:19.241Z,48.88
2023-01-08T16:46:47.790Z,48.69
2023-01-08T16:49:15.972Z,49.07
2023-01-08T16:51:44.990Z,48.82
2023-01-08T16:54:16.808Z,48.89
2023-01-08T16:56:45.048Z,48.68
2023-01-08T16:59:22.774Z,48.95
2023-01-08T17:01:52.707Z,49.16
2023-01-08T17:04:21.320Z,48.74
2023-01-08T17:06:50.980Z,48.88
2023-01-08T17:09:19.343Z,49.74
2023-01-08T17:11:47.975Z,50.60
2023-01-08T17:14:15.757Z,50.40
2023-01-08T17:16:45.507Z,49.49
2023-01-08T17:19:14.252Z,49.12
2023-01-08T17:21:42.208Z,48.67
2023-01-08T17:24:10.329Z,48.77
2023-01-08T17:26:38.227Z,48.94
2023-01-08T17:29:06.471Z,48.87
2023-01-08T17:31:40.614Z,48.87
2023-01-08T17:34:14.119Z,49.04
2023-01-08T17:36:42.396Z,49.22
2023-01-08T17:39:12.017Z,49.27
2023-01-08T17:41:58.182Z,49.11
2023-01-08T17:44:27.759Z,49.11
2023-01-08T17:46:56.269Z,49.11
2023-01-08T17:49:24.077Z,49.06
2023-01-08T17:51:53.674Z,48.93
2023-01-08T17:54:22.792Z,48.93
2023-01-08T17:56:50.767Z,49.22
2023-01-08T17:59:19.254Z,49.32
2023-01-08T18:01:47.951Z,49.27
2023-01-08T18:04:16.407Z,49.04
2023-01-08T18:06:44.712Z,49.00
2023-01-08T18:09:13.533Z,49.27
2023-01-08T18:11:42.587Z,48.91
2023-01-08T18:14:12.538Z,48.97
2023-01-08T18:16:45.717Z,49.16
2023-01-08T18:19:14.428Z,48.88
2023-01-08T18:21:42.860Z,48.75
2023-01-08T18:24:11.403Z,49.05
2023-01-08T18:26:39.135Z,49.06
2023-01-08T18:29:06.823Z,48.87
2023-01-08T18:31:34.951Z,48.78
2023-01-08T18:34:03.976Z,48.88
2023-01-08T18:36:31.869Z,49.05
2023-01-08T18:39:02.538Z,49.65
2023-01-08T18:41:48.769Z,49.41
2023-01-08T18:44:16.641Z,49.20
2023-01-08T18:46:45.516Z,48.64
2023-01-08T18:49:15.827Z,48.39
2023-01-08T18:51:44.067Z,49.06
2023-01-08T18:54:13.089Z,48.16
2023-01-08T18:56:41.252Z,48.08
2023-01-08T18:59:11.620Z,48.27
2023-01-08T19:01:39.540Z,47.95
2023-01-08T19:04:07.689Z,48.15
2023-01-08T19:06:35.768Z,48.58
2023-01-08T19:09:04.216Z,49.29
2023-01-08T19:11:32.052Z,49.85
2023-01-08T19:13:59.897Z,49.91
2023-01-08T19:16:28.065Z,49.69
2023-01-08T19:18:56.925Z,49.12
2023-01-08T19:21:24.867Z,48.90
2023-01-08T19:23:53.945Z,49.51
2023-01-08T19:26:23.321Z,49.61
2023-01-08T19:28:51.041Z,49.49
2023-01-08T19:31:19.817Z,49.63
2023-01-08T19:33:47.954Z,49.02
2023-01-08T19:36:16.719Z,49.05
2023-01-08T19:38:44.876Z,49.95
2023-01-08T19:41:32.421Z,50.31
2023-01-08T19:44:00.353Z,49.88
2023-01-08T19:46:28.829Z,49.83
2023-01-08T19:48:58.444Z,49.65
2023-01-08T19:51:26.941Z,49.78
2023-01-08T19:53:57.151Z,49.76
2023-01-08T19:56:25.699Z,48.90
2023-01-08T19:58:55.102Z,48.72
2023-01-08T20:01:25.973Z,49.04
2023-01-08T20:03:54.791Z,49.61
2023-01-08T20:06:26.185Z,49.46
2023-01-08T20:08:58.054Z,49.75
2023-01-08T20:11:27.197Z,50.20
2023-01-08T20:13:55.957Z,49.94
2023-01-08T20:16:24.717Z,50.21
2023-01-08T20:18:56.890Z,50.50
2023-01-08T20:21:25.047Z,50.15
2023-01-08T20:24:02.315Z,49.78
2023-01-08T20:26:30.480Z,49.55
2023-01-08T20:28:58.971Z,49.64
2023-01-08T20:31:32.882Z,49.49
2023-01-08T20:34:06.987Z,49.29
2023-01-08T20:36:35.200Z,48.83
2023-01-08T20:39:06.686Z,48.71
2023-01-08T20:41:35.066Z,48.37
2023-01-08T20:44:06.883Z,48.64
2023-01-08T20:46:36.389Z,48.49
2023-01-08T20:49:08.223Z,48.45
2023-01-08T20:51:39.682Z,48.24
2023-01-08T20:54:10.618Z,48.72
2023-01-08T20:56:38.458Z,48.49
2023-01-08T20:59:06.348Z,48.37
2023-01-08T21:01:35.684Z,48.85
2023-01-08T21:04:06.528Z,48.60
2023-01-08T21:06:35.434Z,48.51
2023-01-08T21:09:07.956Z,48.39
2023-01-08T21:11:40.648Z,48.37
2023-01-08T21:14:09.165Z,48.43
2023-01-08T21:16:39.830Z,48.42
2023-01-08T21:19:10.862Z,48.36
2023-01-08T21:21:40.887Z,48.53
2023-01-08T21:24:11.543Z,48.63
2023-01-08T21:26:40.723Z,48.63
2023-01-08T21:29:09.487Z,48.72
2023-01-08T21:31:38.600Z,48.49
2023-01-08T21:34:09.200Z,48.22
2023-01-08T21:36:39.735Z,48.47
2023-01-08T21:39:10.447Z,48.20
2023-01-08T21:41:57.111Z,48.25
2023-01-08T21:44:46.633Z,48.71
2023-01-08T21:47:18.977Z,48.98
2023-01-08T21:49:49.954Z,48.74
2023-01-08T21:52:36.465Z,48.69
2023-01-08T21:55:04.688Z,48.63
2023-01-08T21:57:38.727Z,48.68
2023-01-08T22:00:07.596Z,48.67
2023-01-08T22:02:36.255Z,48.59
2023-01-08T22:05:05.245Z,47.91
2023-01-08T22:07:33.419Z,48.30
2023-01-08T22:10:01.339Z,48.38
2023-01-08T22:12:29.802Z,48.09
2023-01-08T22:14:58.644Z,48.08
2023-01-08T22:17:30.034Z,48.18
2023-01-08T22:19:58.272Z,48.51
2023-01-08T22:22:26.911Z,48.21
2023-01-08T22:24:54.986Z,48.62
2023-01-08T22:27:23.236Z,48.36
2023-01-08T22:29:51.082Z,48.54
2023-01-08T22:32:19.056Z,48.34
2023-01-08T22:34:46.815Z,48.48
2023-01-08T22:37:14.768Z,48.53
2023-01-08T22:39:42.573Z,48.48
2023-01-08T22:42:12.099Z,48.37
2023-01-08T22:44:40.208Z,48.40
2023-01-08T22:47:10.253Z,48.09
2023-01-08T22:49:39.175Z,47.96
2023-01-08T22:52:07.739Z,47.88
2023-01-08T22:54:35.567Z,47.90
2023-01-08T22:57:03.909Z,47.87
2023-01-08T22:59:32.136Z,47.98
2023-01-08T23:02:00.199Z,48.12
2023-01-08T23:04:30.869Z,47.98
2023-01-08T23:06:58.736Z,48.25
2023-01-08T23:09:26.609Z,48.50
2023-01-08T23:11:54.547Z,48.14
2023-01-08T23:14:22.654Z,48.25
2023-01-08T23:16:50.687Z,47.78
2023-01-08T23:19:18.437Z,47.74
2023-01-08T23:21:46.280Z,47.72
2023-01-08T23:24:15.668Z,47.79
2023-01-08T23:26:44.158Z,47.98
2023-01-08T23:29:12.197Z,47.80
2023-01-08T23:31:40.250Z,47.84
2023-01-08T23:34:08.093Z,47.59
2023-01-08T23:36:36.070Z,47.83
2023-01-08T23:39:04.522Z,47.74
2023-01-08T23:41:34.843Z,47.63
2023-01-08T23:44:11.332Z,47.52
2023-01-08T23:46:39.369Z,47.57
2023-01-08T23:49:07.466Z,47.90
2023-01-08T23:51:35.929Z,47.85
2023-01-08T23:54:03.856Z,47.82
2023-01-08T23:56:31.964Z,47.83
2023-01-08T23:58:59.945Z,47.88
